^^
Saratoga-Weather Station Historical Data
Daily Summary for July 18, 2020 Units:  Metric    English   Both
Daily Weekly Monthly Yearly Custom
  High: Low: Average:
Temperature: 22.9 °C 11.3 °C 16.7 °C
Dew Point: 15.1 °C 10.7 °C 12.8 °C
Humidity: 98% 51% 80%
Wind Speed: 13km/h 0km/h 2.2km/h
Wind Gust: 22.5km/h - -
Wind- - WSW
Pressure: 1013.9 hPa 1010.8 hPa -
Precipitation: 0.0 mm    
Historical Graphs
 
 
Tabular Data for July 18, 2020
Time Temperature Dew Point Pressure Wind Wind Speed Wind Gust Humidity Rainfall Rate (Hourly) solar
00:02 13.3 °C 12.7 °C 1011.9 hPa Calm     96% 0.0 mm 0 W/m2
00:07 13.3 °C 12.7 °C 1011.9 hPa Calm     96% 0.0 mm 0 W/m2
00:17 13.3 °C 12.7 °C 1011.9 hPa ESE 1.4 km/h 1.6 km/h 96% 0.0 mm 0 W/m2
00:22 13.3 °C 12.7 °C 1011.9 hPa Calm     96% 0.0 mm 0 W/m2
00:27 13.2 °C 12.6 °C 1011.9 hPa Calm     96% 0.0 mm 0 W/m2
00:32 13.2 °C 12.6 °C 1011.9 hPa Calm     96% 0.0 mm 0 W/m2
00:37 13.1 °C 12.5 °C 1011.9 hPa Calm     96% 0.0 mm 0 W/m2
00:46 13.1 °C 12.5 °C 1011.5 hPa Calm     96% 0.0 mm 0 W/m2
00:51 13 °C 12.4 °C 1011.5 hPa ESE 3.2 km/h 3.2 km/h 96% 0.0 mm 0 W/m2
00:56 12.9 °C 12.3 °C 1011.5 hPa Calm     96% 0.0 mm 0 W/m2
01:06 12.9 °C 12.3 °C 1011.5 hPa Calm     96% 0.0 mm 0 W/m2
01:11 12.9 °C 12.3 °C 1011.5 hPa Calm     96% 0.0 mm 0 W/m2
01:16 12.8 °C 12.2 °C 1011.5 hPa Calm     96% 0.0 mm 0 W/m2
01:21 12.8 °C 12.2 °C 1011.5 hPa Calm     96% 0.0 mm 0 W/m2
01:26 12.8 °C 12.2 °C 1011.5 hPa Calm     96% 0.0 mm 0 W/m2
01:36 12.7 °C 12.1 °C 1011.5 hPa Calm     96% 0.0 mm 0 W/m2
01:41 12.6 °C 12 °C 1011.5 hPa Calm   1.6 km/h 96% 0.0 mm 0 W/m2
01:46 12.5 °C 11.9 °C 1011.9 hPa Calm   1.6 km/h 96% 0.0 mm 0 W/m2
01:51 12.4 °C 11.8 °C 1011.9 hPa Calm     96% 0.0 mm 0 W/m2
01:56 12.4 °C 11.8 °C 1011.9 hPa Calm   1.6 km/h 96% 0.0 mm 0 W/m2
02:02 12.3 °C 11.7 °C 1011.9 hPa Calm     96% 0.0 mm 0 W/m2
02:07 12.3 °C 11.7 °C 1011.5 hPa Calm     96% 0.0 mm 0 W/m2
02:12 12.2 °C 11.6 °C 1011.5 hPa Calm     96% 0.0 mm 0 W/m2
02:17 12.1 °C 11.5 °C 1011.2 hPa Calm     96% 0.0 mm 0 W/m2
02:21 11.9 °C 11.3 °C 1011.2 hPa Calm     96% 0.0 mm 0 W/m2
02:26 11.8 °C 11.2 °C 1011.5 hPa Calm     96% 0.0 mm 0 W/m2
02:32 11.8 °C 11.2 °C 1011.5 hPa Calm     96% 0.0 mm 0 W/m2
02:37 11.7 °C 11.1 °C 1011.2 hPa Calm     96% 0.0 mm 0 W/m2
02:42 11.7 °C 11.1 °C 1011.2 hPa Calm     96% 0.0 mm 0 W/m2
02:47 11.7 °C 11.1 °C 1011.2 hPa Calm     96% 0.0 mm 0 W/m2
02:52 11.7 °C 11.2 °C 1011.2 hPa Calm     97% 0.0 mm 0 W/m2
02:57 11.6 °C 11 °C 1011.2 hPa Calm     96% 0.0 mm 0 W/m2
03:02 11.6 °C 11 °C 1011.2 hPa Calm     96% 0.0 mm 0 W/m2
03:07 11.4 °C 10.8 °C 1011.2 hPa Calm     96% 0.0 mm 0 W/m2
03:12 11.4 °C 10.8 °C 1011.2 hPa Calm     96% 0.0 mm 0 W/m2
03:17 11.3 °C 10.8 °C 1011.2 hPa Calm     97% 0.0 mm 0 W/m2
03:23 11.3 °C 10.8 °C 1011.2 hPa Calm     97% 0.0 mm 0 W/m2
03:28 11.3 °C 10.8 °C 1011.2 hPa Calm     97% 0.0 mm 0 W/m2
03:33 11.3 °C 10.7 °C 1011.2 hPa Calm     96% 0.0 mm 0 W/m2
03:38 11.3 °C 10.8 °C 1011.2 hPa Calm     97% 0.0 mm 0 W/m2
03:43 11.3 °C 10.8 °C 1011.2 hPa Calm     97% 0.0 mm 0 W/m2
03:48 11.3 °C 10.8 °C 1011.2 hPa Calm     97% 0.0 mm 0 W/m2
03:53 11.4 °C 10.9 °C 1011.2 hPa Calm     97% 0.0 mm 0 W/m2
03:58 11.5 °C 11 °C 1011.2 hPa Calm   1.6 km/h 97% 0.0 mm 0 W/m2
04:03 11.6 °C 11.1 °C 1011.2 hPa Calm     97% 0.0 mm 0 W/m2
04:08 11.7 °C 11.2 °C 1010.8 hPa Calm     97% 0.0 mm 0 W/m2
04:13 11.7 °C 11.2 °C 1010.8 hPa Calm     97% 0.0 mm 0 W/m2
04:18 11.7 °C 11.2 °C 1010.8 hPa Calm     97% 0.0 mm 0 W/m2
04:23 11.7 °C 11.2 °C 1010.8 hPa Calm     97% 0.0 mm 0 W/m2
04:28 11.7 °C 11.2 °C 1010.8 hPa Calm     97% 0.0 mm 0 W/m2
04:33 11.7 °C 11.2 °C 1010.8 hPa Calm     97% 0.0 mm 0 W/m2
04:38 11.7 °C 11.2 °C 1011.2 hPa Calm   1.6 km/h 97% 0.0 mm 0 W/m2
04:43 11.7 °C 11.2 °C 1011.2 hPa Calm   3.2 km/h 97% 0.0 mm 0 W/m2
04:48 11.7 °C 11.2 °C 1011.2 hPa Calm   1.6 km/h 97% 0.0 mm 0 W/m2
04:53 11.6 °C 11.1 °C 1011.2 hPa Calm     97% 0.0 mm 0 W/m2
04:58 11.6 °C 11.1 °C 1011.2 hPa Calm     97% 0.0 mm 0 W/m2
05:03 11.6 °C 11.1 °C 1011.2 hPa SW 3.2 km/h 4.8 km/h 97% 0.0 mm 0 W/m2
05:08 11.6 °C 11.1 °C 1011.2 hPa Calm   1.6 km/h 97% 0.0 mm 0 W/m2
05:13 11.6 °C 11.1 °C 1011.2 hPa Calm   1.6 km/h 97% 0.0 mm 0 W/m2
05:18 11.5 °C 11 °C 1011.2 hPa SW 1.4 km/h 3.2 km/h 97% 0.0 mm 0 W/m2
05:23 11.4 °C 10.9 °C 1011.2 hPa SW 1.4 km/h 3.2 km/h 97% 0.0 mm 0 W/m2
05:28 11.3 °C 10.8 °C 1011.2 hPa West 3.2 km/h 3.2 km/h 97% 0.0 mm 0 W/m2
05:33 11.3 °C 10.8 °C 1011.2 hPa West 3.2 km/h 4.8 km/h 97% 0.0 mm 0 W/m2
05:38 11.3 °C 10.8 °C 1011.2 hPa West 1.4 km/h 3.2 km/h 97% 0.0 mm 0 W/m2
05:43 11.3 °C 10.8 °C 1011.2 hPa Calm   4.8 km/h 97% 0.0 mm 5 W/m2
05:49 11.3 °C 10.8 °C 1011.2 hPa Calm     97% 0.0 mm 5 W/m2
05:54 11.3 °C 10.8 °C 1011.2 hPa Calm     97% 0.0 mm 7 W/m2
05:59 11.3 °C 10.8 °C 1011.2 hPa West 1.4 km/h 3.2 km/h 97% 0.0 mm 9 W/m2
06:04 11.3 °C 10.8 °C 1011.2 hPa Calm   1.6 km/h 97% 0.0 mm 9 W/m2
06:09 11.3 °C 10.8 °C 1011.2 hPa Calm     97% 0.0 mm 11 W/m2
06:12 11.3 °C 10.8 °C 1011.2 hPa Calm     97% 0.0 mm 11 W/m2
06:18 11.3 °C 10.8 °C 1011.2 hPa Calm     97% 0.0 mm 12 W/m2
06:23 11.4 °C 10.9 °C 1011.2 hPa Calm     97% 0.0 mm 14 W/m2
06:28 11.4 °C 10.9 °C 1011.2 hPa Calm     97% 0.0 mm 19 W/m2
06:33 11.4 °C 10.9 °C 1011.2 hPa Calm     97% 0.0 mm 47 W/m2
06:38 11.4 °C 10.9 °C 1011.2 hPa Calm     97% 0.0 mm 44 W/m2
06:43 11.4 °C 10.9 °C 1011.2 hPa Calm     97% 0.0 mm 54 W/m2
06:48 11.5 °C 11 °C 1011.2 hPa Calm     97% 0.0 mm 67 W/m2
06:53 11.5 °C 11 °C 1011.2 hPa Calm     97% 0.0 mm 69 W/m2
06:58 11.5 °C 11 °C 1011.2 hPa Calm     97% 0.0 mm 74 W/m2
07:03 11.6 °C 11.1 °C 1011.2 hPa Calm     97% 0.0 mm 116 W/m2
07:08 11.7 °C 11.2 °C 1011.2 hPa Calm     97% 0.0 mm 81 W/m2
07:18 11.7 °C 11.2 °C 1011.2 hPa Calm     97% 0.0 mm 120 W/m2
07:23 11.8 °C 11.3 °C 1011.2 hPa Calm   1.6 km/h 97% 0.0 mm 139 W/m2
07:28 11.9 °C 11.6 °C 1011.5 hPa Calm     98% 0.0 mm 114 W/m2
07:38 12.2 °C 11.7 °C 1011.5 hPa West 1.4 km/h 3.2 km/h 97% 0.0 mm 144 W/m2
07:43 12.4 °C 12.1 °C 1011.5 hPa NE 1.4 km/h 3.2 km/h 98% 0.0 mm 137 W/m2
07:48 12.7 °C 12.4 °C 1011.5 hPa Calm   1.6 km/h 98% 0.0 mm 132 W/m2
07:53 12.8 °C 12.5 °C 1011.5 hPa NE 1.4 km/h 4.8 km/h 98% 0.0 mm 360 W/m2
07:58 13.2 °C 12.9 °C 1011.5 hPa North 1.4 km/h 3.2 km/h 98% 0.0 mm 396 W/m2
08:04 13.3 °C 13 °C 1011.5 hPa ENE 3.2 km/h 4.8 km/h 98% 0.0 mm 160 W/m2
08:09 13.4 °C 13.1 °C 1011.9 hPa East 1.4 km/h 1.6 km/h 98% 0.0 mm 144 W/m2
08:14 13.4 °C 13.1 °C 1011.9 hPa Calm   4.8 km/h 98% 0.0 mm 156 W/m2
08:19 13.5 °C 13.2 °C 1011.9 hPa NE 3.2 km/h 4.8 km/h 98% 0.0 mm 149 W/m2
08:24 13.6 °C 13.3 °C 1011.9 hPa SE 1.4 km/h 1.6 km/h 98% 0.0 mm 163 W/m2
08:29 13.6 °C 13.3 °C 1011.9 hPa South 1.4 km/h 1.6 km/h 98% 0.0 mm 179 W/m2
08:39 13.9 °C 13.6 °C 1011.9 hPa Calm   1.6 km/h 98% 0.0 mm 250 W/m2
08:44 13.9 °C 13.6 °C 1011.9 hPa NW 1.4 km/h 4.8 km/h 98% 0.0 mm 276 W/m2
08:49 14.1 °C 13.6 °C 1011.9 hPa NW 1.4 km/h 3.2 km/h 97% 0.0 mm 276 W/m2
08:59 14.9 °C 14.4 °C 1011.9 hPa Calm   1.6 km/h 97% 0.0 mm 445 W/m2
09:04 15.2 °C 14.7 °C 1011.9 hPa NW 1.4 km/h 3.2 km/h 97% 0.0 mm 322 W/m2
09:09 15.2 °C 14.4 °C 1011.9 hPa NE 1.4 km/h 8 km/h 95% 0.0 mm 513 W/m2
09:14 15.3 °C 14.3 °C 1011.9 hPa NW 1.4 km/h 3.2 km/h 94% 0.0 mm 520 W/m2
09:19 15.7 °C 14.6 °C 1011.9 hPa West 3.2 km/h 9.7 km/h 93% 0.0 mm 548 W/m2
09:25 15.9 °C 14.6 °C 1011.9 hPa NE 3.2 km/h 3.2 km/h 92% 0.0 mm 570 W/m2
09:30 16.3 °C 14.8 °C 1011.9 hPa NW 1.4 km/h 9.7 km/h 91% 0.0 mm 571 W/m2
09:35 16.4 °C 14.8 °C 1012.2 hPa NW 4.7 km/h 9.7 km/h 90% 0.0 mm 582 W/m2
09:40 16.6 °C 14.8 °C 1012.2 hPa SW 1.4 km/h 11.3 km/h 89% 0.0 mm 570 W/m2
09:45 16.6 °C 14.6 °C 1011.9 hPa Calm   3.2 km/h 88% 0.0 mm 566 W/m2
09:50 16.7 °C 14.5 °C 1011.9 hPa WNW 11.1 km/h 14.5 km/h 87% 0.0 mm 577 W/m2
09:55 16.9 °C 15.1 °C 1011.9 hPa WSW 1.4 km/h 3.2 km/h 89% 0.0 mm 589 W/m2
10:00 17.2 °C 15 °C 1012.2 hPa West 11.1 km/h 14.5 km/h 87% 0.0 mm 613 W/m2
10:05 17.2 °C 14.7 °C 1012.2 hPa NW 4.7 km/h 6.4 km/h 85% 0.0 mm 687 W/m2
10:14 17.4 °C 14.9 °C 1011.9 hPa West 7.2 km/h 9.7 km/h 85.5% 0.0 mm 155 W/m2
10:19 17.4 °C 14.9 °C 1012.2 hPa NNW 4.7 km/h 9.7 km/h 85% 0.0 mm 712 W/m2
10:24 17.4 °C 14.9 °C 1012.2 hPa WNW 3.2 km/h 6.4 km/h 85% 0.0 mm 724 W/m2
10:30 17.6 °C 14.7 °C 1012.2 hPa West 1.4 km/h 9.7 km/h 83% 0.0 mm 696 W/m2
10:35 17.6 °C 14.5 °C 1011.9 hPa West 6.4 km/h 6.4 km/h 82% 0.0 mm 737 W/m2
10:40 17.8 °C 14.9 °C 1011.9 hPa NNW 4.7 km/h 4.8 km/h 83% 0.0 mm 747 W/m2
10:45 18.2 °C 14.7 °C 1011.9 hPa NE 1.4 km/h 12.9 km/h 80% 0.0 mm 800 W/m2
10:50 18.5 °C 15 °C 1011.9 hPa NW 1.4 km/h 4.8 km/h 80% 0.0 mm 853 W/m2
10:55 18.7 °C 14.6 °C 1012.2 hPa WSW 4.7 km/h 22.5 km/h 77% 0.0 mm 932 W/m2
11:00 18.6 °C 14.3 °C 1012.2 hPa NW 4.7 km/h 8 km/h 76% 0.0 mm 461 W/m2
11:10 18.3 °C 14.4 °C 1012.2 hPa WSW 11.1 km/h 11.3 km/h 78% 0.0 mm 109 W/m2
11:15 18 °C 14.1 °C 1012.2 hPa West 3.2 km/h 6.4 km/h 78% 0.0 mm 120 W/m2
11:20 17.7 °C 14.2 °C 1012.2 hPa NW 11.3 km/h 11.3 km/h 80% 0.0 mm 120 W/m2
11:30 17.6 °C 14.1 °C 1012.2 hPa Calm   4.8 km/h 80% 0.0 mm 264 W/m2
11:35 17.6 °C 14.1 °C 1012.2 hPa ENE 1.4 km/h 3.2 km/h 80% 0.0 mm 230 W/m2
11:40 17.6 °C 14.5 °C 1012.2 hPa Calm   3.2 km/h 82% 0.0 mm 274 W/m2
11:45 17.7 °C 14.4 °C 1012.2 hPa West 11.3 km/h 11.3 km/h 81% 0.0 mm 244 W/m2
11:50 18.1 °C 14.8 °C 1012.2 hPa North 3.2 km/h 4.8 km/h 81% 0.0 mm 954 W/m2
11:55 18.7 °C 15 °C 1012.2 hPa Calm   11.3 km/h 79% 0.0 mm 1053 W/m2
12:00 19.2 °C 14.2 °C 1012.2 hPa WNW 1.4 km/h 8 km/h 73% 0.0 mm 243 W/m2
12:05 19.1 °C 14.4 °C 1012.2 hPa WNW 1.4 km/h 3.2 km/h 74% 0.0 mm 227 W/m2
12:10 18.7 °C 13.5 °C 1012.2 hPa NW 4.7 km/h 6.4 km/h 72% 0.0 mm 234 W/m2
12:16 18.4 °C 13.7 °C 1012.2 hPa SSW 1.4 km/h 14.5 km/h 74% 0.0 mm 234 W/m2
12:21 18.3 °C 13.8 °C 1012.2 hPa WSW 3.2 km/h 6.4 km/h 75% 0.0 mm 272 W/m2
12:26 18.3 °C 14.4 °C 1012.2 hPa Calm   1.6 km/h 78% 0.0 mm 318 W/m2
12:31 18.6 °C 14.3 °C 1012.2 hPa NE 1.4 km/h 4.8 km/h 76% 0.0 mm 1102 W/m2
12:36 18.7 °C 13.3 °C 1012.2 hPa WSW 7.9 km/h 12.9 km/h 71% 0.0 mm 367 W/m2
12:41 18.9 °C 14 °C 1012.2 hPa WNW 7.9 km/h 11.3 km/h 73% 0.0 mm 879 W/m2
12:46 19.3 °C 14.1 °C 1012.2 hPa North 6.4 km/h 12.9 km/h 72% 0.0 mm 983 W/m2
12:51 19.4 °C 13.8 °C 1012.2 hPa West 9.7 km/h 19.3 km/h 70% 0.0 mm 329 W/m2
12:56 19.1 °C 13.3 °C 1012.2 hPa WNW 1.4 km/h 17.7 km/h 69% 0.0 mm 374 W/m2
13:01 18.7 °C 13.3 °C 1012.5 hPa West 1.4 km/h 9.7 km/h 71% 0.0 mm 246 W/m2
13:06 18.7 °C 13.8 °C 1012.2 hPa WSW 3.2 km/h 17.7 km/h 73% 0.0 mm 216 W/m2
13:11 18.7 °C 13.8 °C 1012.2 hPa NW 6.4 km/h 6.4 km/h 73% 0.0 mm 302 W/m2
13:21 18.8 °C 14.1 °C 1012.2 hPa NNW 1.4 km/h 3.2 km/h 74% 0.0 mm 325 W/m2
13:26 18.8 °C 14.1 °C 1012.2 hPa West 6.4 km/h 8 km/h 74% 0.0 mm 271 W/m2
13:31 19 °C 13.8 °C 1012.2 hPa WNW 6.4 km/h 6.4 km/h 72% 0.0 mm 262 W/m2
13:36 19.1 °C 13.5 °C 1012.2 hPa NW 4.7 km/h 6.4 km/h 70% 0.0 mm 301 W/m2
13:41 19.2 °C 13.8 °C 1012.2 hPa ENE 3.2 km/h 9.7 km/h 71% 0.0 mm 411 W/m2
13:47 19.3 °C 13.5 °C 1012.2 hPa WNW 3.2 km/h 3.2 km/h 69% 0.0 mm 302 W/m2
13:52 19.3 °C 13.2 °C 1012.2 hPa Calm   3.2 km/h 68% 0.0 mm 253 W/m2
13:57 19.3 °C 13.2 °C 1012.2 hPa NE 3.2 km/h 6.4 km/h 68% 0.0 mm 311 W/m2
14:02 19.3 °C 13.5 °C 1012.2 hPa NNE 1.4 km/h 6.4 km/h 69% 0.0 mm 454 W/m2
14:07 19.6 °C 13.8 °C 1012.2 hPa ENE 3.2 km/h 6.4 km/h 69% 0.0 mm 1065 W/m2
14:12 19.8 °C 13.9 °C 1012.2 hPa West 3.2 km/h 6.4 km/h 69% 0.0 mm 185 W/m2
14:17 19.8 °C 13.9 °C 1012.2 hPa East 3.2 km/h 3.2 km/h 69% 0.0 mm 216 W/m2
14:22 19.9 °C 14.9 °C 1012.2 hPa NNE 1.4 km/h 3.2 km/h 73% 0.0 mm 230 W/m2
14:27 19.9 °C 14 °C 1012.2 hPa Calm   1.6 km/h 69% 0.0 mm 234 W/m2
14:32 20 °C 14.1 °C 1012.2 hPa WNW 1.4 km/h 4.8 km/h 69% 0.0 mm 373 W/m2
14:37 20 °C 14.1 °C 1012.2 hPa NW 3.2 km/h 3.2 km/h 69% 0.0 mm 473 W/m2
14:42 20.2 °C 14.3 °C 1012.2 hPa WSW 9.7 km/h 9.7 km/h 69% 0.0 mm 522 W/m2
14:47 20.4 °C 13.6 °C 1012.2 hPa Calm   4.8 km/h 65% 0.0 mm 673 W/m2
14:52 20.4 °C 13.6 °C 1012.2 hPa ENE 4.7 km/h 6.4 km/h 65% 0.0 mm 568 W/m2
14:57 20.4 °C 14.1 °C 1012.2 hPa West 3.2 km/h 4.8 km/h 67% 0.0 mm 557 W/m2
15:02 20.4 °C 14.1 °C 1012.2 hPa West 6.4 km/h 16.1 km/h 67% 0.0 mm 622 W/m2
15:07 20.2 °C 13.4 °C 1012.2 hPa WNW 4.7 km/h 9.7 km/h 65% 0.0 mm 561 W/m2
15:12 20.2 °C 13.6 °C 1012.2 hPa West 3.2 km/h 14.5 km/h 66% 0.0 mm 909 W/m2
15:17 19.9 °C 13.6 °C 1012.2 hPa NW 4.7 km/h 4.8 km/h 67% 0.0 mm 294 W/m2
15:22 19.9 °C 14 °C 1012.2 hPa WNW 1.4 km/h 12.9 km/h 69% 0.0 mm 531 W/m2
15:27 20.1 °C 13.8 °C 1012.2 hPa NNW 3.2 km/h 4.8 km/h 67% 0.0 mm 478 W/m2
15:32 20.2 °C 14.1 °C 1012.2 hPa WSW 4.7 km/h 11.3 km/h 68% 0.0 mm 294 W/m2
15:37 20.3 °C 14.2 °C 1012.2 hPa Calm   6.4 km/h 68% 0.0 mm 248 W/m2
15:42 20.2 °C 13.6 °C 1012.2 hPa NW 3.2 km/h 6.4 km/h 66% 0.0 mm 265 W/m2
15:47 20.1 °C 13.8 °C 1012.2 hPa WSW 3.2 km/h 6.4 km/h 67% 0.0 mm 269 W/m2
15:52 19.8 °C 13.7 °C 1012.2 hPa WSW 4.7 km/h 6.4 km/h 68% 0.0 mm 248 W/m2
15:57 19.8 °C 13.9 °C 1012.2 hPa West 1.4 km/h 6.4 km/h 69% 0.0 mm 225 W/m2
16:02 19.7 °C 13.9 °C 1011.9 hPa NW 4.7 km/h 6.4 km/h 69% 0.0 mm 272 W/m2
16:07 19.8 °C 13.9 °C 1011.9 hPa Calm   1.6 km/h 69% 0.0 mm 381 W/m2
16:12 20.2 °C 14.1 °C 1011.9 hPa NW 1.4 km/h 12.9 km/h 68% 0.0 mm 427 W/m2
16:17 20.8 °C 14.2 °C 1011.9 hPa SSW 4.7 km/h 6.4 km/h 66% 0.0 mm 998 W/m2
16:22 21.2 °C 13.6 °C 1011.9 hPa SW 7.9 km/h 16.1 km/h 62% 0.0 mm 786 W/m2
16:27 21.3 °C 13.2 °C 1011.9 hPa WNW 6.4 km/h 14.5 km/h 60% 0.0 mm 754 W/m2
16:32 21.2 °C 12.9 °C 1011.9 hPa NW 4.7 km/h 12.9 km/h 59% 0.0 mm 737 W/m2
16:37 21.5 °C 13.7 °C 1011.9 hPa West 1.4 km/h 6.4 km/h 61% 0.0 mm 722 W/m2
16:42 21.6 °C 13.5 °C 1011.9 hPa WNW 7.9 km/h 9.7 km/h 60% 0.0 mm 721 W/m2
16:47 21.7 °C 13.6 °C 1011.9 hPa Calm   4.8 km/h 60% 0.0 mm 701 W/m2
16:52 21.8 °C 13.9 °C 1011.9 hPa WSW 11.1 km/h 12.9 km/h 61% 0.0 mm 701 W/m2
16:57 21.8 °C 13.2 °C 1011.9 hPa NW 6.4 km/h 11.3 km/h 58% 0.0 mm 689 W/m2
17:03 21.7 °C 13.3 °C 1011.9 hPa WNW 4.7 km/h 12.9 km/h 59% 0.0 mm 694 W/m2
17:08 21.8 °C 13.2 °C 1011.9 hPa NW 7.9 km/h 8 km/h 58% 0.0 mm 670 W/m2
17:13 21.9 °C 13.3 °C 1011.9 hPa WSW 3.2 km/h 12.9 km/h 58% 0.0 mm 673 W/m2
17:18 21.9 °C 13.8 °C 1011.9 hPa WSW 13 km/h 12.9 km/h 60% 0.0 mm 650 W/m2
17:23 21.9 °C 13.3 °C 1011.9 hPa NW 1.4 km/h 6.4 km/h 58% 0.0 mm 638 W/m2
17:28 22.1 °C 13.7 °C 1011.9 hPa West 1.4 km/h 12.9 km/h 59% 0.0 mm 629 W/m2
17:33 22.3 °C 13.4 °C 1011.9 hPa WNW 4.7 km/h 4.8 km/h 57% 0.0 mm 628 W/m2
17:38 22.6 °C 13.1 °C 1011.9 hPa SW 4.7 km/h 8 km/h 55% 0.0 mm 622 W/m2
17:43 22.6 °C 12.8 °C 1011.5 hPa WSW 1.4 km/h 6.4 km/h 54% 0.0 mm 636 W/m2
17:48 22.7 °C 13.7 °C 1011.9 hPa WSW 11.1 km/h 11.3 km/h 57% 0.0 mm 624 W/m2
17:53 22.8 °C 13 °C 1011.5 hPa West 4.7 km/h 9.7 km/h 54% 0.0 mm 617 W/m2
17:58 22.6 °C 12.8 °C 1011.5 hPa West 4.7 km/h 11.3 km/h 54% 0.0 mm 624 W/m2
18:03 22.4 °C 12.6 °C 1011.5 hPa West 1.4 km/h 6.4 km/h 54% 0.0 mm 592 W/m2
18:08 22.6 °C 12.5 °C 1011.5 hPa NW 6.4 km/h 14.5 km/h 53% 0.0 mm 541 W/m2
18:13 22.6 °C 12.5 °C 1011.5 hPa WSW 11.1 km/h 14.5 km/h 53% 0.0 mm 538 W/m2
18:18 22.7 °C 12.9 °C 1011.5 hPa East 3.2 km/h 3.2 km/h 54% 0.0 mm 526 W/m2
18:23 22.8 °C 12.1 °C 1011.5 hPa West 3.2 km/h 9.7 km/h 51% 0.0 mm 503 W/m2
18:28 22.9 °C 12.2 °C 1011.5 hPa West 3.2 km/h 9.7 km/h 51% 0.0 mm 425 W/m2
18:34 22.6 °C 12.2 °C 1011.5 hPa West 3.2 km/h 4.8 km/h 52% 0.0 mm 387 W/m2
18:39 22.4 °C 12.1 °C 1011.5 hPa WSW 7.9 km/h 12.9 km/h 52% 0.0 mm 388 W/m2
18:44 22.3 °C 12 °C 1011.5 hPa WSW 1.4 km/h 6.4 km/h 52% 0.0 mm 91 W/m2
18:49 22.1 °C 12.6 °C 1011.5 hPa West 3.2 km/h 6.4 km/h 55% 0.0 mm 116 W/m2
18:54 21.9 °C 13 °C 1011.5 hPa West 1.4 km/h 1.6 km/h 57% 0.0 mm 105 W/m2
18:59 21.8 °C 12.6 °C 1011.5 hPa Calm   3.2 km/h 56% 0.0 mm 163 W/m2
19:04 21.9 °C 12.2 °C 1011.5 hPa NW 3.2 km/h 6.4 km/h 54% 0.0 mm 346 W/m2
19:09 22.1 °C 12.6 °C 1011.5 hPa East 3.2 km/h 9.7 km/h 55% 0.0 mm 345 W/m2
19:14 22.3 °C 12.8 °C 1011.5 hPa NNE 3.2 km/h 3.2 km/h 55% 0.0 mm 381 W/m2
19:19 22.6 °C 13.9 °C 1011.5 hPa ESE 1.4 km/h 6.4 km/h 58% 0.0 mm 339 W/m2
19:24 22.7 °C 13.2 °C 1011.5 hPa Calm   1.6 km/h 55% 0.0 mm 200 W/m2
19:29 22.8 °C 12.4 °C 1011.5 hPa WSW 1.4 km/h 8 km/h 52% 0.0 mm 302 W/m2
19:34 22.7 °C 12.6 °C 1011.5 hPa WNW 4.7 km/h 6.4 km/h 53% 0.0 mm 272 W/m2
19:39 22.7 °C 13.2 °C 1011.5 hPa NW 4.7 km/h 8 km/h 55% 0.0 mm 243 W/m2
19:44 22.7 °C 13.5 °C 1011.5 hPa WNW 4.7 km/h 6.4 km/h 56% 0.0 mm 199 W/m2
19:49 22.6 °C 13.1 °C 1011.5 hPa WSW 1.4 km/h 9.7 km/h 55% 0.0 mm 193 W/m2
19:54 22.4 °C 12.9 °C 1011.5 hPa WSW 3.2 km/h 4.8 km/h 55% 0.0 mm 197 W/m2
19:59 22.2 °C 13.3 °C 1011.5 hPa NW 4.7 km/h 9.7 km/h 57% 0.0 mm 67 W/m2
20:04 21.8 °C 12.4 °C 1011.5 hPa WSW 3.2 km/h 4.8 km/h 55% 0.0 mm 58 W/m2
20:09 21.4 °C 13.1 °C 1011.5 hPa Calm   9.7 km/h 59% 0.0 mm 67 W/m2
20:14 21.2 °C 13.4 °C 1011.9 hPa West 3.2 km/h 3.2 km/h 61% 0.0 mm 83 W/m2
20:19 21 °C 13.9 °C 1011.9 hPa Calm   1.6 km/h 64% 0.0 mm 181 W/m2
20:24 21.1 °C 13.3 °C 1011.9 hPa West 3.2 km/h 4.8 km/h 61% 0.0 mm 169 W/m2
20:29 21.2 °C 13.1 °C 1011.9 hPa Calm   6.4 km/h 60% 0.0 mm 155 W/m2
20:34 21.3 °C 13.2 °C 1011.9 hPa WSW 3.2 km/h 6.4 km/h 60% 0.0 mm 109 W/m2
20:39 21.2 °C 13.1 °C 1011.9 hPa West 4.7 km/h 8 km/h 60% 0.0 mm 90 W/m2
20:44 21.1 °C 13.3 °C 1011.9 hPa West 6.4 km/h 6.4 km/h 61% 0.0 mm 79 W/m2
20:49 20.9 °C 13.3 °C 1011.9 hPa West 4.7 km/h 4.8 km/h 62% 0.0 mm 69 W/m2
20:54 20.7 °C 13.4 °C 1011.9 hPa Calm   3.2 km/h 63% 0.0 mm 60 W/m2
20:59 20.6 °C 13.6 °C 1012.2 hPa WNW 1.4 km/h 4.8 km/h 64% 0.0 mm 51 W/m2
21:04 20.4 °C 13.6 °C 1012.2 hPa West 4.7 km/h 4.8 km/h 65% 0.0 mm 42 W/m2
21:09 20.1 °C 13.1 °C 1011.9 hPa West 1.4 km/h 9.7 km/h 64% 0.0 mm 33 W/m2
21:14 19.7 °C 13.2 °C 1012.2 hPa WSW 3.2 km/h 4.8 km/h 66% 0.0 mm 18 W/m2
21:19 19.3 °C 13.2 °C 1012.2 hPa WSW 1.4 km/h 8 km/h 68% 0.0 mm 16 W/m2
21:24 19 °C 13.2 °C 1012.2 hPa WNW 3.2 km/h 4.8 km/h 69% 0.0 mm 12 W/m2
21:29 18.8 °C 13 °C 1012.2 hPa West 3.2 km/h 9.7 km/h 69% 0.0 mm 9 W/m2
21:34 18.5 °C 12.9 °C 1012.2 hPa Calm   3.2 km/h 70% 0.0 mm 7 W/m2
21:39 18.3 °C 13 °C 1012.5 hPa Calm   8 km/h 71% 0.0 mm 5 W/m2
21:44 18.1 °C 13 °C 1012.5 hPa Calm   3.2 km/h 72% 0.0 mm 0 W/m2
21:49 17.9 °C 13 °C 1012.5 hPa West 1.4 km/h 4.8 km/h 73% 0.0 mm 0 W/m2
21:54 17.7 °C 13.2 °C 1012.9 hPa West 1.4 km/h 1.6 km/h 75% 0.0 mm 0 W/m2
21:59 17.5 °C 13.4 °C 1012.9 hPa West 1.4 km/h 4.8 km/h 77% 0.0 mm 0 W/m2
22:04 17.2 °C 13.1 °C 1012.9 hPa West 1.4 km/h 1.6 km/h 77% 0.0 mm 0 W/m2
22:09 16.9 °C 13 °C 1012.9 hPa Calm   1.6 km/h 78% 0.0 mm 0 W/m2
22:14 16.6 °C 12.7 °C 1013.2 hPa Calm   3.2 km/h 78% 0.0 mm 0 W/m2
22:19 16.4 °C 12.6 °C 1013.2 hPa Calm   1.6 km/h 78% 0.0 mm 0 W/m2
22:24 16.3 °C 12.8 °C 1013.2 hPa WSW 1.4 km/h 1.6 km/h 80% 0.0 mm 0 W/m2
22:29 16.2 °C 12.7 °C 1013.2 hPa Calm   1.6 km/h 80% 0.0 mm 0 W/m2
22:34 15.9 °C 12.6 °C 1013.2 hPa Calm     81% 0.0 mm 0 W/m2
22:39 15.8 °C 12.4 °C 1013.2 hPa Calm     80% 0.0 mm 0 W/m2
22:44 15.8 °C 12.5 °C 1013.2 hPa Calm     81% 0.0 mm 0 W/m2
22:49 15.7 °C 12.6 °C 1013.5 hPa Calm     82% 0.0 mm 0 W/m2
22:54 15.6 °C 12.5 °C 1013.5 hPa Calm     82% 0.0 mm 0 W/m2
22:59 15.4 °C 12.5 °C 1013.5 hPa Calm     83% 0.0 mm 0 W/m2
23:04 15.3 °C 12.4 °C 1013.5 hPa Calm     83% 0.0 mm 0 W/m2
23:09 15.1 °C 12.4 °C 1013.5 hPa Calm     84% 0.0 mm 0 W/m2
23:15 15 °C 12.3 °C 1013.5 hPa WSW 1.4 km/h 3.2 km/h 84% 0.0 mm 0 W/m2
23:20 14.9 °C 12.2 °C 1013.5 hPa Calm     84% 0.0 mm 0 W/m2
23:25 14.8 °C 12.3 °C 1013.5 hPa WSW 1.4 km/h 3.2 km/h 85% 0.0 mm 0 W/m2
23:30 14.8 °C 12.3 °C 1013.5 hPa Calm   1.6 km/h 85% 0.0 mm 0 W/m2
23:35 14.8 °C 12.3 °C 1013.5 hPa WSW 1.4 km/h 1.6 km/h 85% 0.0 mm 0 W/m2
23:40 14.8 °C 12.3 °C 1013.5 hPa Calm     85% 0.0 mm 0 W/m2
23:45 14.8 °C 12.1 °C 1013.5 hPa WSW 3.2 km/h 3.2 km/h 84% 0.0 mm 0 W/m2
23:50 15.2 °C 12.3 °C 1013.5 hPa Calm   3.2 km/h 83% 0.0 mm 0 W/m2
23:55 15.4 °C 12.3 °C 1013.9 hPa WSW 1.4 km/h 3.2 km/h 82% 0.0 mm 0 W/m2
Juneau County Weather
Compliments of Weather Underground - 4 mb